sensor_id;sensor_type;location;lat;lon;timestamp;P1;durP1;ratioP1;P2;durP2;ratioP2
79487;SDS011;68949;53.176;18.088;2023-07-30T00:02:16;5.80;;;2.30;;
79487;SDS011;68949;53.176;18.088;2023-07-30T00:04:45;5.60;;;1.70;;
79487;SDS011;68949;53.176;18.088;2023-07-30T00:07:12;5.60;;;2.80;;
79487;SDS011;68949;53.176;18.088;2023-07-30T00:09:39;5.80;;;2.60;;
79487;SDS011;68949;53.176;18.088;2023-07-30T00:12:07;5.60;;;2.60;;
79487;SDS011;68949;53.176;18.088;2023-07-30T00:14:34;5.60;;;2.70;;
79487;SDS011;68949;53.176;18.088;2023-07-30T00:17:02;5.10;;;2.50;;
79487;SDS011;68949;53.176;18.088;2023-07-30T00:19:29;4.50;;;2.20;;
79487;SDS011;68949;53.176;18.088;2023-07-30T00:21:56;3.60;;;1.40;;
79487;SDS011;68949;53.176;18.088;2023-07-30T00:24:23;6.70;;;3.00;;
79487;SDS011;68949;53.176;18.088;2023-07-30T00:26:49;5.20;;;2.50;;
79487;SDS011;68949;53.176;18.088;2023-07-30T00:29:16;5.80;;;2.70;;
79487;SDS011;68949;53.176;18.088;2023-07-30T00:31:43;5.90;;;2.80;;
79487;SDS011;68949;53.176;18.088;2023-07-30T00:34:09;6.00;;;2.70;;
79487;SDS011;68949;53.176;18.088;2023-07-30T00:36:36;5.20;;;2.70;;
79487;SDS011;68949;53.176;18.088;2023-07-30T00:39:03;4.50;;;1.50;;
79487;SDS011;68949;53.176;18.088;2023-07-30T00:41:31;7.60;;;3.60;;
79487;SDS011;68949;53.176;18.088;2023-07-30T00:43:57;6.10;;;3.20;;
79487;SDS011;68949;53.176;18.088;2023-07-30T00:46:24;7.00;;;3.30;;
79487;SDS011;68949;53.176;18.088;2023-07-30T00:48:51;6.90;;;2.70;;
79487;SDS011;68949;53.176;18.088;2023-07-30T00:51:19;7.50;;;2.80;;
79487;SDS011;68949;53.176;18.088;2023-07-30T00:53:47;7.00;;;3.40;;
79487;SDS011;68949;53.176;18.088;2023-07-30T00:56:14;5.50;;;2.40;;
79487;SDS011;68949;53.176;18.088;2023-07-30T00:58:44;6.50;;;3.40;;
79487;SDS011;68949;53.176;18.088;2023-07-30T01:01:13;9.10;;;4.40;;
79487;SDS011;68949;53.176;18.088;2023-07-30T01:03:39;6.90;;;3.50;;
79487;SDS011;68949;53.176;18.088;2023-07-30T01:06:07;9.70;;;3.40;;
79487;SDS011;68949;53.176;18.088;2023-07-30T01:08:34;8.20;;;3.90;;
79487;SDS011;68949;53.176;18.088;2023-07-30T01:11:03;9.10;;;4.00;;
79487;SDS011;68949;53.176;18.088;2023-07-30T01:13:34;7.30;;;3.10;;
79487;SDS011;68949;53.176;18.088;2023-07-30T01:16:02;7.20;;;3.80;;
79487;SDS011;68949;53.176;18.088;2023-07-30T01:18:30;10.10;;;4.80;;
79487;SDS011;68949;53.176;18.088;2023-07-30T01:20:59;9.30;;;4.80;;
79487;SDS011;68949;53.176;18.088;2023-07-30T01:23:26;7.60;;;4.60;;
79487;SDS011;68949;53.176;18.088;2023-07-30T01:26:01;9.70;;;5.30;;
79487;SDS011;68949;53.176;18.088;2023-07-30T01:28:36;9.30;;;4.60;;
79487;SDS011;68949;53.176;18.088;2023-07-30T01:31:07;10.40;;;4.60;;
79487;SDS011;68949;53.176;18.088;2023-07-30T01:33:37;8.50;;;3.90;;
79487;SDS011;68949;53.176;18.088;2023-07-30T01:36:08;8.90;;;4.40;;
79487;SDS011;68949;53.176;18.088;2023-07-30T01:38:40;7.50;;;4.20;;
79487;SDS011;68949;53.176;18.088;2023-07-30T01:41:08;8.60;;;5.40;;
79487;SDS011;68949;53.176;18.088;2023-07-30T01:43:36;9.50;;;5.00;;
79487;SDS011;68949;53.176;18.088;2023-07-30T01:46:03;8.90;;;5.20;;
79487;SDS011;68949;53.176;18.088;2023-07-30T01:48:30;9.60;;;5.50;;
79487;SDS011;68949;53.176;18.088;2023-07-30T01:50:56;10.60;;;5.50;;
79487;SDS011;68949;53.176;18.088;2023-07-30T01:53:23;9.80;;;5.60;;
79487;SDS011;68949;53.176;18.088;2023-07-30T01:55:50;9.10;;;5.30;;
79487;SDS011;68949;53.176;18.088;2023-07-30T01:58:16;7.80;;;5.00;;
79487;SDS011;68949;53.176;18.088;2023-07-30T02:00:44;9.00;;;5.00;;
79487;SDS011;68949;53.176;18.088;2023-07-30T02:03:10;8.70;;;4.60;;
79487;SDS011;68949;53.176;18.088;2023-07-30T02:05:37;8.80;;;4.60;;
79487;SDS011;68949;53.176;18.088;2023-07-30T02:08:03;8.80;;;4.40;;
79487;SDS011;68949;53.176;18.088;2023-07-30T02:10:31;8.80;;;4.40;;
79487;SDS011;68949;53.176;18.088;2023-07-30T02:12:57;9.00;;;5.20;;
79487;SDS011;68949;53.176;18.088;2023-07-30T02:15:24;11.70;;;5.70;;
79487;SDS011;68949;53.176;18.088;2023-07-30T02:17:51;10.40;;;4.70;;
79487;SDS011;68949;53.176;18.088;2023-07-30T02:20:17;12.30;;;6.40;;
79487;SDS011;68949;53.176;18.088;2023-07-30T02:22:44;9.30;;;4.20;;
79487;SDS011;68949;53.176;18.088;2023-07-30T02:25:11;9.50;;;5.40;;
79487;SDS011;68949;53.176;18.088;2023-07-30T02:27:37;11.20;;;4.80;;
79487;SDS011;68949;53.176;18.088;2023-07-30T02:30:05;12.70;;;5.40;;
79487;SDS011;68949;53.176;18.088;2023-07-30T02:32:32;10.30;;;5.40;;
79487;SDS011;68949;53.176;18.088;2023-07-30T02:34:59;9.60;;;5.30;;
79487;SDS011;68949;53.176;18.088;2023-07-30T02:37:25;9.50;;;5.30;;
79487;SDS011;68949;53.176;18.088;2023-07-30T02:39:52;10.30;;;5.60;;
79487;SDS011;68949;53.176;18.088;2023-07-30T02:42:19;9.30;;;4.30;;
79487;SDS011;68949;53.176;18.088;2023-07-30T02:44:46;12.80;;;5.30;;
79487;SDS011;68949;53.176;18.088;2023-07-30T02:47:12;10.50;;;5.40;;
79487;SDS011;68949;53.176;18.088;2023-07-30T02:49:39;9.10;;;5.30;;
79487;SDS011;68949;53.176;18.088;2023-07-30T02:52:06;9.00;;;5.10;;
79487;SDS011;68949;53.176;18.088;2023-07-30T02:54:33;9.90;;;4.90;;
79487;SDS011;68949;53.176;18.088;2023-07-30T02:56:59;12.00;;;4.80;;
79487;SDS011;68949;53.176;18.088;2023-07-30T02:59:27;9.70;;;5.60;;
79487;SDS011;68949;53.176;18.088;2023-07-30T03:01:54;7.90;;;4.50;;
79487;SDS011;68949;53.176;18.088;2023-07-30T03:04:21;12.00;;;4.90;;
79487;SDS011;68949;53.176;18.088;2023-07-30T03:06:47;11.40;;;5.30;;
79487;SDS011;68949;53.176;18.088;2023-07-30T03:09:14;9.90;;;4.70;;
79487;SDS011;68949;53.176;18.088;2023-07-30T03:11:41;10.90;;;5.50;;
79487;SDS011;68949;53.176;18.088;2023-07-30T03:14:08;11.40;;;6.20;;
79487;SDS011;68949;53.176;18.088;2023-07-30T03:16:34;10.80;;;4.80;;
79487;SDS011;68949;53.176;18.088;2023-07-30T03:19:01;8.60;;;5.60;;
79487;SDS011;68949;53.176;18.088;2023-07-30T03:21:27;12.60;;;5.40;;
79487;SDS011;68949;53.176;18.088;2023-07-30T03:23:54;11.20;;;6.00;;
79487;SDS011;68949;53.176;18.088;2023-07-30T03:26:21;9.00;;;4.80;;
79487;SDS011;68949;53.176;18.088;2023-07-30T03:28:47;10.80;;;5.60;;
79487;SDS011;68949;53.176;18.088;2023-07-30T03:31:14;9.70;;;5.40;;
79487;SDS011;68949;53.176;18.088;2023-07-30T03:33:42;8.80;;;5.10;;
79487;SDS011;68949;53.176;18.088;2023-07-30T03:36:10;10.80;;;6.00;;
79487;SDS011;68949;53.176;18.088;2023-07-30T03:38:37;9.70;;;5.40;;
79487;SDS011;68949;53.176;18.088;2023-07-30T03:41:06;10.00;;;5.50;;
79487;SDS011;68949;53.176;18.088;2023-07-30T03:43:34;11.00;;;5.30;;
79487;SDS011;68949;53.176;18.088;2023-07-30T03:46:01;10.20;;;5.60;;
79487;SDS011;68949;53.176;18.088;2023-07-30T03:48:28;10.10;;;5.80;;
79487;SDS011;68949;53.176;18.088;2023-07-30T03:50:55;10.40;;;6.10;;
79487;SDS011;68949;53.176;18.088;2023-07-30T03:53:22;11.10;;;5.40;;
79487;SDS011;68949;53.176;18.088;2023-07-30T03:55:49;8.70;;;5.00;;
79487;SDS011;68949;53.176;18.088;2023-07-30T03:58:16;10.50;;;5.50;;
79487;SDS011;68949;53.176;18.088;2023-07-30T04:00:42;9.70;;;5.40;;
79487;SDS011;68949;53.176;18.088;2023-07-30T04:03:09;9.50;;;5.50;;
79487;SDS011;68949;53.176;18.088;2023-07-30T04:05:36;8.60;;;5.30;;
79487;SDS011;68949;53.176;18.088;2023-07-30T04:08:02;11.00;;;5.60;;
79487;SDS011;68949;53.176;18.088;2023-07-30T04:10:29;11.40;;;5.80;;
79487;SDS011;68949;53.176;18.088;2023-07-30T04:12:56;10.10;;;5.40;;
79487;SDS011;68949;53.176;18.088;2023-07-30T04:15:22;11.40;;;5.50;;
79487;SDS011;68949;53.176;18.088;2023-07-30T04:17:49;9.30;;;4.80;;
79487;SDS011;68949;53.176;18.088;2023-07-30T04:20:16;9.50;;;5.60;;
79487;SDS011;68949;53.176;18.088;2023-07-30T04:22:44;9.40;;;5.50;;
79487;SDS011;68949;53.176;18.088;2023-07-30T04:25:11;9.10;;;5.30;;
79487;SDS011;68949;53.176;18.088;2023-07-30T04:27:37;12.90;;;7.10;;
79487;SDS011;68949;53.176;18.088;2023-07-30T04:30:05;11.50;;;6.70;;
79487;SDS011;68949;53.176;18.088;2023-07-30T04:32:33;11.40;;;6.60;;
79487;SDS011;68949;53.176;18.088;2023-07-30T04:35:01;11.80;;;5.70;;
79487;SDS011;68949;53.176;18.088;2023-07-30T04:37:29;10.90;;;6.20;;
79487;SDS011;68949;53.176;18.088;2023-07-30T04:39:56;9.40;;;5.50;;
79487;SDS011;68949;53.176;18.088;2023-07-30T04:42:23;12.20;;;6.30;;
79487;SDS011;68949;53.176;18.088;2023-07-30T04:44:50;10.60;;;5.70;;
79487;SDS011;68949;53.176;18.088;2023-07-30T04:47:17;11.10;;;5.00;;
79487;SDS011;68949;53.176;18.088;2023-07-30T04:49:44;9.70;;;4.90;;
79487;SDS011;68949;53.176;18.088;2023-07-30T04:52:10;9.50;;;5.30;;
79487;SDS011;68949;53.176;18.088;2023-07-30T04:54:37;9.70;;;5.10;;
79487;SDS011;68949;53.176;18.088;2023-07-30T04:57:04;7.90;;;4.60;;
79487;SDS011;68949;53.176;18.088;2023-07-30T04:59:32;9.80;;;5.40;;
79487;SDS011;68949;53.176;18.088;2023-07-30T05:02:00;9.40;;;4.70;;
79487;SDS011;68949;53.176;18.088;2023-07-30T05:04:27;9.80;;;5.50;;
79487;SDS011;68949;53.176;18.088;2023-07-30T05:06:54;11.20;;;5.60;;
79487;SDS011;68949;53.176;18.088;2023-07-30T05:09:20;9.90;;;5.30;;
79487;SDS011;68949;53.176;18.088;2023-07-30T05:11:48;10.00;;;5.60;;
79487;SDS011;68949;53.176;18.088;2023-07-30T05:14:14;11.40;;;5.00;;
79487;SDS011;68949;53.176;18.088;2023-07-30T05:16:41;13.20;;;6.80;;
79487;SDS011;68949;53.176;18.088;2023-07-30T05:19:08;11.80;;;6.40;;
79487;SDS011;68949;53.176;18.088;2023-07-30T05:21:34;9.70;;;5.70;;
79487;SDS011;68949;53.176;18.088;2023-07-30T05:24:01;12.70;;;6.80;;
79487;SDS011;68949;53.176;18.088;2023-07-30T05:26:28;12.30;;;7.00;;
79487;SDS011;68949;53.176;18.088;2023-07-30T05:28:54;8.80;;;5.10;;
79487;SDS011;68949;53.176;18.088;2023-07-30T05:31:21;10.80;;;6.40;;
79487;SDS011;68949;53.176;18.088;2023-07-30T05:33:48;12.90;;;6.70;;
79487;SDS011;68949;53.176;18.088;2023-07-30T05:36:14;14.50;;;6.60;;
79487;SDS011;68949;53.176;18.088;2023-07-30T05:38:41;12.40;;;6.90;;
79487;SDS011;68949;53.176;18.088;2023-07-30T05:41:08;11.50;;;6.40;;
79487;SDS011;68949;53.176;18.088;2023-07-30T05:43:34;13.10;;;7.40;;
79487;SDS011;68949;53.176;18.088;2023-07-30T05:46:01;10.40;;;6.40;;
79487;SDS011;68949;53.176;18.088;2023-07-30T05:48:27;10.40;;;6.50;;
79487;SDS011;68949;53.176;18.088;2023-07-30T05:50:54;10.00;;;6.10;;
79487;SDS011;68949;53.176;18.088;2023-07-30T05:53:21;10.70;;;5.50;;
79487;SDS011;68949;53.176;18.088;2023-07-30T05:55:48;12.30;;;6.90;;
79487;SDS011;68949;53.176;18.088;2023-07-30T05:58:15;10.40;;;6.10;;
79487;SDS011;68949;53.176;18.088;2023-07-30T06:00:41;11.40;;;7.00;;
79487;SDS011;68949;53.176;18.088;2023-07-30T06:03:08;11.50;;;7.60;;
79487;SDS011;68949;53.176;18.088;2023-07-30T06:05:42;13.10;;;7.60;;
79487;SDS011;68949;53.176;18.088;2023-07-30T06:08:09;10.60;;;6.80;;
79487;SDS011;68949;53.176;18.088;2023-07-30T06:10:38;10.20;;;6.60;;
79487;SDS011;68949;53.176;18.088;2023-07-30T06:13:07;11.00;;;7.10;;
79487;SDS011;68949;53.176;18.088;2023-07-30T06:15:33;10.10;;;6.80;;
79487;SDS011;68949;53.176;18.088;2023-07-30T06:18:01;9.60;;;6.00;;
79487;SDS011;68949;53.176;18.088;2023-07-30T06:20:29;12.30;;;7.80;;
79487;SDS011;68949;53.176;18.088;2023-07-30T06:22:56;13.30;;;7.50;;
79487;SDS011;68949;53.176;18.088;2023-07-30T06:25:23;16.00;;;8.00;;
79487;SDS011;68949;53.176;18.088;2023-07-30T06:27:49;10.30;;;6.00;;
79487;SDS011;68949;53.176;18.088;2023-07-30T06:30:17;11.90;;;7.30;;
79487;SDS011;68949;53.176;18.088;2023-07-30T06:32:44;13.30;;;7.40;;
79487;SDS011;68949;53.176;18.088;2023-07-30T06:35:11;11.10;;;6.90;;
79487;SDS011;68949;53.176;18.088;2023-07-30T06:37:37;12.00;;;7.30;;
79487;SDS011;68949;53.176;18.088;2023-07-30T06:40:05;11.00;;;7.30;;
79487;SDS011;68949;53.176;18.088;2023-07-30T06:42:32;12.90;;;7.60;;
79487;SDS011;68949;53.176;18.088;2023-07-30T06:44:59;11.10;;;6.70;;
79487;SDS011;68949;53.176;18.088;2023-07-30T06:47:26;11.20;;;7.10;;
79487;SDS011;68949;53.176;18.088;2023-07-30T06:49:53;10.50;;;6.80;;
79487;SDS011;68949;53.176;18.088;2023-07-30T06:52:20;11.70;;;7.50;;
79487;SDS011;68949;53.176;18.088;2023-07-30T06:54:46;10.40;;;6.80;;
79487;SDS011;68949;53.176;18.088;2023-07-30T06:57:13;8.90;;;6.00;;
79487;SDS011;68949;53.176;18.088;2023-07-30T06:59:40;11.30;;;7.00;;
79487;SDS011;68949;53.176;18.088;2023-07-30T07:02:07;12.20;;;7.10;;
79487;SDS011;68949;53.176;18.088;2023-07-30T07:04:33;10.80;;;6.40;;
79487;SDS011;68949;53.176;18.088;2023-07-30T07:07:00;11.60;;;6.30;;
79487;SDS011;68949;53.176;18.088;2023-07-30T07:09:29;11.70;;;6.50;;
79487;SDS011;68949;53.176;18.088;2023-07-30T07:11:56;11.30;;;6.50;;
79487;SDS011;68949;53.176;18.088;2023-07-30T07:14:24;10.20;;;7.60;;
79487;SDS011;68949;53.176;18.088;2023-07-30T07:16:52;9.80;;;5.90;;
79487;SDS011;68949;53.176;18.088;2023-07-30T07:19:21;8.80;;;6.20;;
79487;SDS011;68949;53.176;18.088;2023-07-30T07:21:47;10.40;;;6.50;;
79487;SDS011;68949;53.176;18.088;2023-07-30T07:24:14;10.70;;;7.10;;
79487;SDS011;68949;53.176;18.088;2023-07-30T07:26:41;8.00;;;5.80;;
79487;SDS011;68949;53.176;18.088;2023-07-30T07:29:09;9.00;;;5.80;;
79487;SDS011;68949;53.176;18.088;2023-07-30T07:31:36;10.60;;;6.90;;
79487;SDS011;68949;53.176;18.088;2023-07-30T07:34:02;10.40;;;6.50;;
79487;SDS011;68949;53.176;18.088;2023-07-30T07:36:29;10.10;;;5.90;;
79487;SDS011;68949;53.176;18.088;2023-07-30T07:38:55;8.30;;;5.80;;
79487;SDS011;68949;53.176;18.088;2023-07-30T07:41:22;10.70;;;7.30;;
79487;SDS011;68949;53.176;18.088;2023-07-30T07:43:49;8.80;;;5.60;;
79487;SDS011;68949;53.176;18.088;2023-07-30T07:46:15;8.20;;;5.90;;
79487;SDS011;68949;53.176;18.088;2023-07-30T07:48:43;9.80;;;6.00;;
79487;SDS011;68949;53.176;18.088;2023-07-30T07:51:10;8.80;;;6.00;;
79487;SDS011;68949;53.176;18.088;2023-07-30T07:53:38;7.10;;;4.90;;
79487;SDS011;68949;53.176;18.088;2023-07-30T07:56:05;9.10;;;6.30;;
79487;SDS011;68949;53.176;18.088;2023-07-30T07:58:32;7.90;;;4.70;;
79487;SDS011;68949;53.176;18.088;2023-07-30T08:00:59;8.60;;;6.20;;
79487;SDS011;68949;53.176;18.088;2023-07-30T08:03:26;8.30;;;6.10;;
79487;SDS011;68949;53.176;18.088;2023-07-30T08:05:55;8.80;;;6.10;;
79487;SDS011;68949;53.176;18.088;2023-07-30T08:08:25;9.50;;;5.70;;
79487;SDS011;68949;53.176;18.088;2023-07-30T08:10:53;8.20;;;6.20;;
79487;SDS011;68949;53.176;18.088;2023-07-30T08:13:20;8.60;;;5.70;;
79487;SDS011;68949;53.176;18.088;2023-07-30T08:15:47;8.40;;;4.70;;
79487;SDS011;68949;53.176;18.088;2023-07-30T08:18:13;8.10;;;5.90;;
79487;SDS011;68949;53.176;18.088;2023-07-30T08:20:40;8.00;;;5.50;;
79487;SDS011;68949;53.176;18.088;2023-07-30T08:23:06;7.70;;;5.40;;
79487;SDS011;68949;53.176;18.088;2023-07-30T08:25:33;6.60;;;5.00;;
79487;SDS011;68949;53.176;18.088;2023-07-30T08:28:00;10.60;;;5.60;;
79487;SDS011;68949;53.176;18.088;2023-07-30T08:30:26;7.90;;;5.40;;
79487;SDS011;68949;53.176;18.088;2023-07-30T08:32:53;6.50;;;4.30;;
79487;SDS011;68949;53.176;18.088;2023-07-30T08:35:20;7.40;;;5.10;;
79487;SDS011;68949;53.176;18.088;2023-07-30T08:37:46;7.30;;;5.80;;
79487;SDS011;68949;53.176;18.088;2023-07-30T08:40:14;9.00;;;5.60;;
79487;SDS011;68949;53.176;18.088;2023-07-30T08:42:41;7.40;;;5.20;;
79487;SDS011;68949;53.176;18.088;2023-07-30T08:45:08;8.20;;;5.10;;
79487;SDS011;68949;53.176;18.088;2023-07-30T08:47:35;7.00;;;5.10;;
79487;SDS011;68949;53.176;18.088;2023-07-30T08:50:02;9.20;;;3.70;;
79487;SDS011;68949;53.176;18.088;2023-07-30T08:52:29;7.40;;;4.30;;
79487;SDS011;68949;53.176;18.088;2023-07-30T08:54:58;7.30;;;4.60;;
79487;SDS011;68949;53.176;18.088;2023-07-30T08:57:29;6.90;;;4.60;;
79487;SDS011;68949;53.176;18.088;2023-07-30T09:00:06;7.60;;;5.20;;
79487;SDS011;68949;53.176;18.088;2023-07-30T09:02:48;7.30;;;5.40;;
79487;SDS011;68949;53.176;18.088;2023-07-30T09:05:19;8.60;;;5.30;;
79487;SDS011;68949;53.176;18.088;2023-07-30T09:07:47;6.20;;;4.70;;
79487;SDS011;68949;53.176;18.088;2023-07-30T09:10:14;8.70;;;5.70;;
79487;SDS011;68949;53.176;18.088;2023-07-30T09:12:41;7.00;;;4.70;;
79487;SDS011;68949;53.176;18.088;2023-07-30T09:15:08;5.70;;;3.80;;
79487;SDS011;68949;53.176;18.088;2023-07-30T09:17:35;6.50;;;4.10;;
79487;SDS011;68949;53.176;18.088;2023-07-30T09:20:03;7.00;;;4.70;;
79487;SDS011;68949;53.176;18.088;2023-07-30T09:22:32;6.00;;;4.00;;
79487;SDS011;68949;53.176;18.088;2023-07-30T09:25:03;7.80;;;5.00;;
79487;SDS011;68949;53.176;18.088;2023-07-30T09:27:31;7.50;;;4.90;;
79487;SDS011;68949;53.176;18.088;2023-07-30T09:30:00;9.40;;;6.20;;
79487;SDS011;68949;53.176;18.088;2023-07-30T09:32:32;7.50;;;4.90;;
79487;SDS011;68949;53.176;18.088;2023-07-30T09:35:07;7.30;;;5.00;;
79487;SDS011;68949;53.176;18.088;2023-07-30T09:37:40;10.70;;;6.20;;
79487;SDS011;68949;53.176;18.088;2023-07-30T09:40:10;6.40;;;4.70;;
79487;SDS011;68949;53.176;18.088;2023-07-30T09:42:43;6.90;;;4.90;;
79487;SDS011;68949;53.176;18.088;2023-07-30T09:45:17;8.30;;;4.70;;
79487;SDS011;68949;53.176;18.088;2023-07-30T09:47:52;6.80;;;4.40;;
79487;SDS011;68949;53.176;18.088;2023-07-30T09:50:20;6.50;;;3.90;;
79487;SDS011;68949;53.176;18.088;2023-07-30T09:52:47;6.30;;;4.60;;
79487;SDS011;68949;53.176;18.088;2023-07-30T09:55:15;7.50;;;5.00;;
79487;SDS011;68949;53.176;18.088;2023-07-30T09:57:45;6.40;;;4.00;;
79487;SDS011;68949;53.176;18.088;2023-07-30T10:00:12;6.50;;;4.40;;
79487;SDS011;68949;53.176;18.088;2023-07-30T10:02:42;6.60;;;4.70;;
79487;SDS011;68949;53.176;18.088;2023-07-30T10:05:17;6.20;;;4.40;;
79487;SDS011;68949;53.176;18.088;2023-07-30T10:07:52;5.20;;;3.60;;
79487;SDS011;68949;53.176;18.088;2023-07-30T10:10:24;5.90;;;4.10;;
79487;SDS011;68949;53.176;18.088;2023-07-30T10:12:52;6.60;;;4.50;;
79487;SDS011;68949;53.176;18.088;2023-07-30T10:15:22;6.10;;;4.20;;
79487;SDS011;68949;53.176;18.088;2023-07-30T10:17:55;7.20;;;4.50;;
79487;SDS011;68949;53.176;18.088;2023-07-30T10:20:25;5.40;;;3.60;;
79487;SDS011;68949;53.176;18.088;2023-07-30T10:22:55;7.10;;;5.20;;
79487;SDS011;68949;53.176;18.088;2023-07-30T10:25:28;6.40;;;4.50;;
79487;SDS011;68949;53.176;18.088;2023-07-30T10:27:57;7.20;;;4.30;;
79487;SDS011;68949;53.176;18.088;2023-07-30T10:30:30;8.20;;;5.20;;
79487;SDS011;68949;53.176;18.088;2023-07-30T10:38:22;7.70;;;4.80;;
79487;SDS011;68949;53.176;18.088;2023-07-30T10:41:12;9.20;;;4.90;;
79487;SDS011;68949;53.176;18.088;2023-07-30T10:43:42;7.60;;;5.10;;
79487;SDS011;68949;53.176;18.088;2023-07-30T10:46:12;6.20;;;4.10;;
79487;SDS011;68949;53.176;18.088;2023-07-30T10:48:41;7.00;;;4.50;;
79487;SDS011;68949;53.176;18.088;2023-07-30T10:51:11;6.20;;;4.00;;
79487;SDS011;68949;53.176;18.088;2023-07-30T10:53:42;6.20;;;4.10;;
79487;SDS011;68949;53.176;18.088;2023-07-30T10:56:13;5.50;;;3.90;;
79487;SDS011;68949;53.176;18.088;2023-07-30T10:58:42;7.70;;;4.40;;
79487;SDS011;68949;53.176;18.088;2023-07-30T11:01:09;5.10;;;3.10;;
79487;SDS011;68949;53.176;18.088;2023-07-30T11:03:36;5.80;;;3.00;;
79487;SDS011;68949;53.176;18.088;2023-07-30T11:06:05;4.90;;;3.20;;
79487;SDS011;68949;53.176;18.088;2023-07-30T11:08:42;5.40;;;3.70;;
79487;SDS011;68949;53.176;18.088;2023-07-30T11:11:10;5.90;;;3.90;;
79487;SDS011;68949;53.176;18.088;2023-07-30T11:13:38;5.30;;;3.20;;
79487;SDS011;68949;53.176;18.088;2023-07-30T11:16:10;5.80;;;3.80;;
79487;SDS011;68949;53.176;18.088;2023-07-30T11:18:37;6.10;;;3.20;;
79487;SDS011;68949;53.176;18.088;2023-07-30T11:21:09;5.40;;;3.10;;
79487;SDS011;68949;53.176;18.088;2023-07-30T11:23:39;5.20;;;3.40;;
79487;SDS011;68949;53.176;18.088;2023-07-30T11:26:09;6.70;;;3.40;;
79487;SDS011;68949;53.176;18.088;2023-07-30T11:28:40;4.60;;;3.00;;
79487;SDS011;68949;53.176;18.088;2023-07-30T11:31:11;6.40;;;2.90;;
79487;SDS011;68949;53.176;18.088;2023-07-30T11:33:44;5.80;;;3.20;;
79487;SDS011;68949;53.176;18.088;2023-07-30T11:36:18;6.80;;;3.00;;
79487;SDS011;68949;53.176;18.088;2023-07-30T11:38:51;4.80;;;2.70;;
79487;SDS011;68949;53.176;18.088;2023-07-30T11:41:19;5.30;;;3.10;;
79487;SDS011;68949;53.176;18.088;2023-07-30T11:43:49;6.50;;;3.90;;
79487;SDS011;68949;53.176;18.088;2023-07-30T11:46:17;4.90;;;2.60;;
79487;SDS011;68949;53.176;18.088;2023-07-30T11:48:52;4.60;;;2.30;;
79487;SDS011;68949;53.176;18.088;2023-07-30T11:51:36;5.40;;;2.20;;
79487;SDS011;68949;53.176;18.088;2023-07-30T11:54:02;4.50;;;2.30;;
79487;SDS011;68949;53.176;18.088;2023-07-30T11:56:31;3.80;;;2.10;;
79487;SDS011;68949;53.176;18.088;2023-07-30T11:59:06;4.40;;;2.40;;
79487;SDS011;68949;53.176;18.088;2023-07-30T12:01:36;4.50;;;1.90;;
79487;SDS011;68949;53.176;18.088;2023-07-30T12:04:04;4.40;;;2.10;;
79487;SDS011;68949;53.176;18.088;2023-07-30T12:06:43;5.50;;;2.80;;
79487;SDS011;68949;53.176;18.088;2023-07-30T12:09:17;5.30;;;2.60;;
79487;SDS011;68949;53.176;18.088;2023-07-30T12:14:25;5.00;;;2.90;;
79487;SDS011;68949;53.176;18.088;2023-07-30T12:16:57;5.00;;;2.70;;
79487;SDS011;68949;53.176;18.088;2023-07-30T12:19:24;5.10;;;3.00;;
79487;SDS011;68949;53.176;18.088;2023-07-30T12:21:51;4.70;;;2.50;;
79487;SDS011;68949;53.176;18.088;2023-07-30T12:24:18;5.00;;;2.80;;
79487;SDS011;68949;53.176;18.088;2023-07-30T12:26:45;7.40;;;3.20;;
79487;SDS011;68949;53.176;18.088;2023-07-30T12:29:12;5.20;;;3.40;;
79487;SDS011;68949;53.176;18.088;2023-07-30T12:31:40;5.00;;;3.10;;
79487;SDS011;68949;53.176;18.088;2023-07-30T12:34:07;6.30;;;3.90;;
79487;SDS011;68949;53.176;18.088;2023-07-30T12:36:34;7.40;;;3.90;;
79487;SDS011;68949;53.176;18.088;2023-07-30T12:39:01;5.60;;;3.50;;
79487;SDS011;68949;53.176;18.088;2023-07-30T12:41:28;6.70;;;4.00;;
79487;SDS011;68949;53.176;18.088;2023-07-30T12:43:56;4.70;;;2.80;;
79487;SDS011;68949;53.176;18.088;2023-07-30T12:46:23;4.80;;;3.00;;
79487;SDS011;68949;53.176;18.088;2023-07-30T12:48:51;5.80;;;4.10;;
79487;SDS011;68949;53.176;18.088;2023-07-30T12:51:18;5.30;;;3.40;;
79487;SDS011;68949;53.176;18.088;2023-07-30T12:53:45;4.90;;;3.00;;
79487;SDS011;68949;53.176;18.088;2023-07-30T12:56:11;5.60;;;3.00;;
79487;SDS011;68949;53.176;18.088;2023-07-30T12:58:38;5.30;;;3.30;;
79487;SDS011;68949;53.176;18.088;2023-07-30T13:01:06;5.10;;;3.20;;
79487;SDS011;68949;53.176;18.088;2023-07-30T13:03:33;5.70;;;3.30;;
79487;SDS011;68949;53.176;18.088;2023-07-30T13:06:00;6.40;;;2.90;;
79487;SDS011;68949;53.176;18.088;2023-07-30T13:08:27;4.60;;;2.70;;
79487;SDS011;68949;53.176;18.088;2023-07-30T13:10:53;4.90;;;2.90;;
79487;SDS011;68949;53.176;18.088;2023-07-30T13:13:20;5.00;;;2.80;;
79487;SDS011;68949;53.176;18.088;2023-07-30T13:15:47;4.80;;;2.90;;
79487;SDS011;68949;53.176;18.088;2023-07-30T13:18:13;5.30;;;3.00;;
79487;SDS011;68949;53.176;18.088;2023-07-30T13:20:40;5.10;;;3.00;;
79487;SDS011;68949;53.176;18.088;2023-07-30T13:23:07;5.40;;;2.80;;
79487;SDS011;68949;53.176;18.088;2023-07-30T13:25:33;4.60;;;2.80;;
79487;SDS011;68949;53.176;18.088;2023-07-30T13:28:00;4.30;;;2.40;;
79487;SDS011;68949;53.176;18.088;2023-07-30T13:30:26;6.50;;;2.80;;
79487;SDS011;68949;53.176;18.088;2023-07-30T13:32:55;4.00;;;2.20;;
79487;SDS011;68949;53.176;18.088;2023-07-30T13:35:23;6.10;;;3.00;;
79487;SDS011;68949;53.176;18.088;2023-07-30T13:37:49;5.00;;;2.60;;
79487;SDS011;68949;53.176;18.088;2023-07-30T13:40:16;6.30;;;3.30;;
79487;SDS011;68949;53.176;18.088;2023-07-30T13:42:43;5.30;;;3.00;;
79487;SDS011;68949;53.176;18.088;2023-07-30T13:45:09;5.90;;;2.80;;
79487;SDS011;68949;53.176;18.088;2023-07-30T13:47:36;5.40;;;2.10;;
79487;SDS011;68949;53.176;18.088;2023-07-30T13:50:03;4.30;;;2.70;;
79487;SDS011;68949;53.176;18.088;2023-07-30T13:52:30;5.80;;;2.50;;
79487;SDS011;68949;53.176;18.088;2023-07-30T13:54:56;4.20;;;2.10;;
79487;SDS011;68949;53.176;18.088;2023-07-30T13:57:24;4.80;;;2.30;;
79487;SDS011;68949;53.176;18.088;2023-07-30T13:59:52;4.20;;;1.90;;
79487;SDS011;68949;53.176;18.088;2023-07-30T14:02:19;4.30;;;1.90;;
79487;SDS011;68949;53.176;18.088;2023-07-30T14:04:46;4.00;;;1.90;;
79487;SDS011;68949;53.176;18.088;2023-07-30T14:07:13;3.90;;;1.90;;
79487;SDS011;68949;53.176;18.088;2023-07-30T14:09:39;3.40;;;1.60;;
79487;SDS011;68949;53.176;18.088;2023-07-30T14:12:06;5.10;;;1.60;;
79487;SDS011;68949;53.176;18.088;2023-07-30T14:14:33;4.50;;;1.80;;
79487;SDS011;68949;53.176;18.088;2023-07-30T14:17:00;4.70;;;1.70;;
79487;SDS011;68949;53.176;18.088;2023-07-30T14:19:33;3.70;;;1.70;;
79487;SDS011;68949;53.176;18.088;2023-07-30T14:22:00;3.70;;;1.70;;
79487;SDS011;68949;53.176;18.088;2023-07-30T14:24:27;3.70;;;1.70;;
79487;SDS011;68949;53.176;18.088;2023-07-30T14:26:54;3.40;;;1.40;;
79487;SDS011;68949;53.176;18.088;2023-07-30T14:29:21;4.90;;;1.80;;
79487;SDS011;68949;53.176;18.088;2023-07-30T14:31:47;3.80;;;1.40;;
79487;SDS011;68949;53.176;18.088;2023-07-30T14:34:14;5.10;;;1.70;;
79487;SDS011;68949;53.176;18.088;2023-07-30T14:36:41;3.10;;;1.60;;
79487;SDS011;68949;53.176;18.088;2023-07-30T14:39:08;3.80;;;1.30;;
79487;SDS011;68949;53.176;18.088;2023-07-30T14:41:34;5.70;;;1.40;;
79487;SDS011;68949;53.176;18.088;2023-07-30T14:44:01;3.20;;;1.40;;